createdAt,value
2022-08-23T00:00:30.329Z,0
2022-08-23T00:05:34.901Z,0
2022-08-23T00:10:39.431Z,0
2022-08-23T00:15:42.951Z,0
2022-08-23T00:20:47.501Z,0
2022-08-23T00:25:52.062Z,0
2022-08-23T00:30:55.570Z,0
2022-08-23T00:36:00.131Z,0
2022-08-23T00:41:04.651Z,0
2022-08-23T00:46:08.212Z,0
2022-08-23T00:51:12.739Z,0
2022-08-23T00:56:17.284Z,0
2022-08-23T01:01:21.851Z,0
2022-08-23T01:06:25.375Z,0
2022-08-23T01:11:29.908Z,0
2022-08-23T01:16:34.412Z,0
2022-08-23T01:21:38.001Z,0
2022-08-23T01:26:42.561Z,0
2022-08-23T01:31:47.070Z,0
2022-08-23T01:36:50.583Z,0
2022-08-23T01:41:55.155Z,0
2022-08-23T01:46:59.669Z,0
2022-08-23T01:52:03.231Z,0
2022-08-23T01:57:07.748Z,0
2022-08-23T02:02:12.289Z,0
2022-08-23T02:07:16.792Z,0
2022-08-23T02:12:20.354Z,0
2022-08-23T02:17:24.945Z,0
2022-08-23T02:22:29.457Z,0
2022-08-23T02:27:32.978Z,0
2022-08-23T02:32:37.556Z,0
2022-08-23T02:37:42.102Z,0
2022-08-23T02:42:45.635Z,0
2022-08-23T02:47:50.211Z,0
2022-08-23T02:52:53.707Z,0
2022-08-23T02:57:58.394Z,0
2022-08-23T03:03:02.790Z,0
2022-08-23T03:08:06.347Z,0
2022-08-23T03:13:10.884Z,0
2022-08-23T03:18:15.434Z,0
2022-08-23T03:23:18.976Z,0
2022-08-23T03:28:23.510Z,0
2022-08-23T03:33:27.989Z,0
2022-08-23T03:38:31.557Z,0
2022-08-23T03:43:36.124Z,0
2022-08-23T03:48:40.613Z,0
2022-08-23T03:53:45.178Z,0
2022-08-23T03:58:48.691Z,0
2022-08-23T04:03:53.236Z,0
2022-08-23T04:08:57.787Z,0
2022-08-23T04:14:01.306Z,0
2022-08-23T04:19:05.866Z,0
2022-08-23T04:24:10.382Z,5
2022-08-23T04:29:13.945Z,5
2022-08-23T04:34:20.232Z,11
2022-08-23T04:39:22.982Z,22
2022-08-23T04:44:26.576Z,33
2022-08-23T04:49:31.079Z,39
2022-08-23T04:54:35.629Z,50
2022-08-23T04:59:40.149Z,61
2022-08-23T05:04:43.736Z,78
2022-08-23T05:09:48.233Z,90
2022-08-23T05:14:52.751Z,101
2022-08-23T05:19:56.308Z,112
2022-08-23T05:25:00.855Z,123
2022-08-23T05:30:05.403Z,140
2022-08-23T05:35:08.939Z,151
2022-08-23T05:40:13.554Z,163
2022-08-23T05:45:21.163Z,185
2022-08-23T05:50:21.549Z,202
2022-08-23T05:55:34.824Z,213
2022-08-23T06:00:38.053Z,230
2022-08-23T06:05:35.169Z,241
2022-08-23T06:10:42.124Z,258
2022-08-23T06:15:43.258Z,281
2022-08-23T06:20:47.846Z,320
2022-08-23T06:25:51.336Z,388
2022-08-23T06:30:55.978Z,517
2022-08-23T06:36:00.384Z,562
2022-08-23T06:41:03.994Z,871
2022-08-23T06:46:08.527Z,928
2022-08-23T06:51:13.024Z,810
2022-08-23T06:56:16.540Z,691
2022-08-23T07:01:44.134Z,686
2022-08-23T07:06:24.684Z,675
2022-08-23T07:11:29.219Z,675
2022-08-23T07:16:33.777Z,742
2022-08-23T07:21:37.282Z,765
2022-08-23T07:26:41.811Z,888
2022-08-23T07:31:46.414Z,877
2022-08-23T07:36:49.910Z,905
2022-08-23T07:41:54.464Z,635
2022-08-23T07:47:00.662Z,663
2022-08-23T07:52:03.503Z,1091
2022-08-23T07:57:07.069Z,1260
2022-08-23T08:02:11.692Z,1434
2022-08-23T08:07:21.111Z,1395
2022-08-23T08:12:19.687Z,1215
2022-08-23T08:17:27.399Z,1389
2022-08-23T08:22:28.768Z,1001
2022-08-23T08:27:32.311Z,838
2022-08-23T08:32:36.882Z,1631
2022-08-23T08:37:41.376Z,1693
2022-08-23T08:42:44.931Z,1726
2022-08-23T08:47:49.468Z,1721
2022-08-23T08:52:54.025Z,1749
2022-08-23T08:57:58.628Z,1822
2022-08-23T09:03:02.152Z,1873
2022-08-23T09:08:06.646Z,1918
2022-08-23T09:13:11.454Z,1968
2022-08-23T09:18:14.738Z,1946
2022-08-23T09:23:19.270Z,1985
2022-08-23T09:28:23.810Z,2115
2022-08-23T09:33:27.336Z,2053
2022-08-23T09:38:31.906Z,2070
2022-08-23T09:43:36.424Z,2171
2022-08-23T09:48:40.000Z,2188
2022-08-23T09:53:44.538Z,2103
2022-08-23T09:58:49.083Z,2171
2022-08-23T10:03:53.592Z,2143
2022-08-23T10:08:57.156Z,2250
2022-08-23T10:14:01.687Z,2188
2022-08-23T10:19:06.275Z,2295
2022-08-23T10:24:09.840Z,2210
2022-08-23T10:29:14.370Z,2227
2022-08-23T10:34:18.909Z,2306
2022-08-23T10:39:22.432Z,1996
2022-08-23T10:44:26.988Z,2233
2022-08-23T10:49:31.514Z,2131
2022-08-23T10:54:35.127Z,2137
2022-08-23T10:59:39.600Z,2323
2022-08-23T11:04:44.146Z,2216
2022-08-23T11:09:48.830Z,2345
2022-08-23T11:14:52.233Z,2171
2022-08-23T11:19:55.839Z,2289
2022-08-23T11:25:00.357Z,2205
2022-08-23T11:30:04.915Z,2171
2022-08-23T11:35:08.457Z,2143
2022-08-23T11:40:17.990Z,2154
2022-08-23T11:45:17.550Z,2109
2022-08-23T11:50:22.064Z,2115
2022-08-23T11:55:25.628Z,2182
2022-08-23T12:00:30.168Z,2137
2022-08-23T12:05:34.696Z,2182
2022-08-23T12:10:38.284Z,2115
2022-08-23T12:15:42.864Z,2238
2022-08-23T12:20:48.565Z,1293
2022-08-23T12:25:50.913Z,2165
2022-08-23T12:30:55.537Z,2154
2022-08-23T12:36:00.014Z,2188
2022-08-23T12:41:03.568Z,675
2022-08-23T12:46:08.115Z,635
2022-08-23T12:51:12.620Z,2255
2022-08-23T12:56:17.181Z,1074
2022-08-23T13:01:20.819Z,720
2022-08-23T13:06:25.278Z,630
2022-08-23T13:11:29.797Z,1625
2022-08-23T13:16:33.336Z,1957
2022-08-23T13:21:39.914Z,528
2022-08-23T13:26:42.442Z,551
2022-08-23T13:31:46.016Z,613
2022-08-23T13:36:50.525Z,826
2022-08-23T13:41:55.050Z,697
2022-08-23T13:46:58.593Z,1861
2022-08-23T13:52:33.379Z,1884
2022-08-23T13:57:07.712Z,1800
2022-08-23T14:02:12.230Z,1535
2022-08-23T14:07:15.759Z,911
2022-08-23T14:12:21.279Z,585
2022-08-23T14:17:24.924Z,624
2022-08-23T14:22:28.395Z,1035
2022-08-23T14:27:32.989Z,967
2022-08-23T14:32:37.483Z,973
2022-08-23T14:42:45.553Z,573
2022-08-23T14:47:50.120Z,720
2022-08-23T14:52:53.654Z,433
2022-08-23T14:57:58.164Z,427
2022-08-23T15:03:07.519Z,438
2022-08-23T15:08:07.240Z,495
2022-08-23T15:13:20.973Z,686
2022-08-23T15:18:15.353Z,1063
2022-08-23T15:23:19.891Z,832
2022-08-23T15:28:23.413Z,410
2022-08-23T15:33:31.394Z,759
2022-08-23T15:38:31.547Z,686
2022-08-23T15:43:36.045Z,663
2022-08-23T15:48:40.594Z,613
2022-08-23T15:53:44.178Z,331
2022-08-23T15:58:48.689Z,691
2022-08-23T16:03:53.235Z,720
2022-08-23T16:08:56.759Z,686
2022-08-23T16:14:01.308Z,343
2022-08-23T16:19:05.891Z,466
2022-08-23T16:24:09.388Z,393
2022-08-23T16:29:13.925Z,286
2022-08-23T16:34:18.496Z,298
2022-08-23T16:39:22.022Z,275
2022-08-23T16:44:26.600Z,219
2022-08-23T16:49:31.140Z,230
2022-08-23T16:54:35.669Z,225
2022-08-23T16:59:40.663Z,219
2022-08-23T17:04:43.721Z,202
2022-08-23T17:09:48.295Z,174
2022-08-23T17:14:51.809Z,157
2022-08-23T17:19:56.374Z,146
2022-08-23T17:25:00.942Z,129
2022-08-23T17:30:04.458Z,106
2022-08-23T17:35:12.778Z,95
2022-08-23T17:40:13.573Z,90
2022-08-23T17:45:17.057Z,84
2022-08-23T17:50:21.633Z,73
2022-08-23T17:55:26.188Z,61
2022-08-23T18:00:30.664Z,56
2022-08-23T18:05:34.264Z,45
2022-08-23T18:10:38.774Z,39
2022-08-23T18:15:43.286Z,28
2022-08-23T18:20:46.825Z,22
2022-08-23T18:25:51.364Z,16
2022-08-23T18:30:55.914Z,11
2022-08-23T18:35:59.459Z,5
2022-08-23T18:41:04.018Z,0
2022-08-23T18:46:08.599Z,0
2022-08-23T18:51:17.951Z,0
2022-08-23T18:56:16.609Z,0
2022-08-23T19:01:21.232Z,0
2022-08-23T19:06:25.686Z,0
2022-08-23T19:11:29.235Z,0
2022-08-23T19:16:33.855Z,0
2022-08-23T19:21:38.283Z,0
2022-08-23T19:26:41.823Z,0
2022-08-23T19:31:46.447Z,0
2022-08-23T19:36:59.108Z,0
2022-08-23T19:41:54.468Z,0
2022-08-23T19:46:58.972Z,0
2022-08-23T19:52:02.531Z,0
2022-08-23T19:57:07.059Z,0
2022-08-23T20:02:11.623Z,0
2022-08-23T20:07:15.162Z,0
2022-08-23T20:12:19.693Z,0
2022-08-23T20:17:24.253Z,0
2022-08-23T20:22:27.788Z,0
2022-08-23T20:27:32.326Z,0
2022-08-23T20:32:36.836Z,0
2022-08-23T20:37:40.403Z,0
2022-08-23T20:42:44.923Z,0
2022-08-23T20:47:49.473Z,0
2022-08-23T20:52:53.985Z,0
2022-08-23T20:57:57.562Z,0
2022-08-23T21:03:02.232Z,0
2022-08-23T21:08:06.635Z,0
2022-08-23T21:13:10.640Z,0
2022-08-23T21:18:14.720Z,0
2022-08-23T21:23:19.255Z,0
2022-08-23T21:28:22.817Z,0
2022-08-23T21:33:27.307Z,0
2022-08-23T21:38:31.830Z,0
2022-08-23T21:43:35.450Z,0
2022-08-23T21:48:39.931Z,0
2022-08-23T21:53:44.448Z,0
2022-08-23T21:58:50.692Z,0
2022-08-23T22:03:56.795Z,0
2022-08-23T22:08:57.094Z,0
2022-08-23T22:14:01.594Z,0
2022-08-23T22:19:05.185Z,0
2022-08-23T22:24:09.706Z,0
2022-08-23T22:29:14.234Z,0
2022-08-23T22:34:17.817Z,0
2022-08-23T22:39:22.306Z,0
2022-08-23T22:44:26.826Z,0
2022-08-23T22:49:30.889Z,0
2022-08-23T22:54:34.961Z,0
2022-08-23T22:59:39.507Z,0
2022-08-23T23:04:43.998Z,0
2022-08-23T23:09:47.562Z,0
2022-08-23T23:14:52.082Z,0
2022-08-23T23:22:28.896Z,0
2022-08-23T23:27:32.471Z,0
2022-08-23T23:32:36.943Z,0
2022-08-23T23:37:41.479Z,0
2022-08-23T23:42:45.069Z,0
2022-08-23T23:47:49.606Z,0
2022-08-23T23:52:54.128Z,0
2022-08-23T23:57:57.694Z,0
